createdAt,value
2018-07-01T00:00:54.553Z,33.17
2018-07-01T00:03:23.407Z,33.37
2018-07-01T00:05:52.183Z,33.47
2018-07-01T00:08:21.823Z,34.98
2018-07-01T00:10:50.539Z,39.80
2018-07-01T00:13:19.234Z,34.00
2018-07-01T00:15:47.933Z,34.81
2018-07-01T00:18:16.718Z,34.14
2018-07-01T00:20:45.557Z,34.42
2018-07-01T00:23:14.316Z,36.06
2018-07-01T00:25:43.091Z,36.12
2018-07-01T00:28:11.769Z,34.42
2018-07-01T00:30:40.477Z,34.53
2018-07-01T00:33:09.233Z,34.22
2018-07-01T00:35:37.930Z,41.14
2018-07-01T00:38:06.586Z,35.86
2018-07-01T00:40:35.418Z,34.66
2018-07-01T00:43:04.325Z,40.68
2018-07-01T00:45:32.964Z,39.17
2018-07-01T00:48:01.667Z,39.56
2018-07-01T00:50:30.428Z,38.05
2018-07-01T00:52:59.150Z,40.85
2018-07-01T00:55:28.059Z,36.60
2018-07-01T00:57:56.732Z,36.03
2018-07-01T01:00:30.404Z,38.74
2018-07-01T01:02:59.230Z,42.34
2018-07-01T01:05:28.084Z,40.11
2018-07-01T01:07:56.931Z,38.93
2018-07-01T01:10:26.159Z,37.82
2018-07-01T01:12:55.615Z,34.59
2018-07-01T01:15:24.433Z,39.83
2018-07-01T01:17:53.254Z,36.47
2018-07-01T01:20:21.981Z,38.98
2018-07-01T01:22:50.710Z,35.13
2018-07-01T01:25:19.496Z,33.84
2018-07-01T01:27:48.128Z,38.24
2018-07-01T01:30:16.848Z,33.04
2018-07-01T01:32:45.460Z,39.63
2018-07-01T01:35:14.224Z,39.40
2018-07-01T01:37:43.067Z,37.73
2018-07-01T01:40:12.380Z,38.08
2018-07-01T01:42:52.271Z,39.79
2018-07-01T01:45:31.336Z,38.74
2018-07-01T01:48:07.236Z,34.84
2018-07-01T01:51:11.777Z,36.29
2018-07-01T01:53:59.752Z,33.70
2018-07-01T02:03:09.441Z,38.59
2018-07-01T02:05:49.651Z,33.98
2018-07-01T02:08:24.635Z,35.12
2018-07-01T02:10:58.914Z,37.62
2018-07-01T02:13:27.869Z,35.29
2018-07-01T02:16:06.887Z,34.88
2018-07-01T02:18:38.014Z,39.54
2018-07-01T02:21:14.881Z,36.43
2018-07-01T02:23:49.532Z,34.92
2018-07-01T02:26:17.975Z,36.16
2018-07-01T02:28:46.378Z,35.54
2018-07-01T02:31:14.755Z,35.10
2018-07-01T02:33:43.229Z,36.25
2018-07-01T02:36:12.688Z,37.30
2018-07-01T02:38:41.146Z,38.38
2018-07-01T02:41:09.653Z,37.49
2018-07-01T02:43:38.066Z,38.89
2018-07-01T02:46:06.511Z,37.91
2018-07-01T02:48:34.891Z,37.62
2018-07-01T02:51:03.312Z,38.11
2018-07-01T02:53:31.614Z,39.79
2018-07-01T02:56:00.878Z,42.27
2018-07-01T02:58:29.222Z,38.95
2018-07-01T03:00:57.683Z,39.81
2018-07-01T03:03:26.035Z,42.56
2018-07-01T03:05:54.415Z,39.28
2018-07-01T03:08:22.741Z,39.63
2018-07-01T03:10:51.056Z,40.36
2018-07-01T03:13:19.667Z,40.77
2018-07-01T03:15:47.991Z,39.39
2018-07-01T03:21:02.602Z,42.01
2018-07-01T03:23:31.149Z,41.26
2018-07-01T03:25:59.589Z,47.07
2018-07-01T03:28:28.502Z,43.68
2018-07-01T03:30:56.920Z,43.29
2018-07-01T03:33:25.242Z,41.05
2018-07-01T03:35:53.601Z,40.00
2018-07-01T03:38:22.014Z,43.68
2018-07-01T03:40:50.442Z,43.14
2018-07-01T03:43:18.962Z,42.27
2018-07-01T03:45:47.318Z,41.32
2018-07-01T03:48:15.627Z,40.03
2018-07-01T03:50:43.990Z,41.28
2018-07-01T03:53:12.291Z,37.52
2018-07-01T03:55:40.890Z,39.32
2018-07-01T03:58:09.169Z,37.33
2018-07-01T04:00:37.582Z,39.59
2018-07-01T04:03:06.043Z,42.17
2018-07-01T04:05:34.435Z,37.01
2018-07-01T04:08:02.869Z,42.48
2018-07-01T04:10:31.238Z,38.12
2018-07-01T04:12:59.658Z,40.71
2018-07-01T04:15:28.024Z,39.50
2018-07-01T04:17:56.390Z,38.70
2018-07-01T04:20:24.760Z,39.42
2018-07-01T04:22:53.540Z,38.11
2018-07-01T04:25:22.012Z,39.09
2018-07-01T04:27:50.407Z,39.80
2018-07-01T04:30:18.801Z,39.03
2018-07-01T04:32:47.167Z,37.87
2018-07-01T04:35:15.507Z,43.47
2018-07-01T04:37:44.131Z,41.57
2018-07-01T04:40:12.481Z,41.23
2018-07-01T04:42:40.853Z,40.71
2018-07-01T04:45:09.238Z,40.91
2018-07-01T04:47:37.543Z,38.25
2018-07-01T04:50:06.099Z,37.77
2018-07-01T04:52:34.492Z,38.10
2018-07-01T04:55:02.975Z,40.78
2018-07-01T04:57:31.402Z,40.49
2018-07-01T04:59:59.698Z,38.70
2018-07-01T05:02:28.051Z,37.34
2018-07-01T05:04:56.293Z,36.34
2018-07-01T05:07:24.670Z,38.24
2018-07-01T05:09:53.093Z,38.18
2018-07-01T05:12:21.501Z,40.38
2018-07-01T05:14:49.853Z,39.52
2018-07-01T05:17:18.173Z,38.86
2018-07-01T05:19:46.563Z,39.60
2018-07-01T05:22:15.584Z,38.25
2018-07-01T05:24:43.998Z,38.27
2018-07-01T05:27:12.402Z,39.83
2018-07-01T05:29:40.723Z,39.43
2018-07-01T05:32:09.102Z,40.66
2018-07-01T05:34:37.539Z,36.41
2018-07-01T05:37:05.986Z,34.77
2018-07-01T05:39:34.308Z,34.98
2018-07-01T05:42:02.650Z,34.77
2018-07-01T05:44:31.160Z,35.25
2018-07-01T05:46:59.564Z,35.00
2018-07-01T05:49:28.069Z,34.59
2018-07-01T05:51:56.373Z,34.15
2018-07-01T05:54:24.720Z,35.97
2018-07-01T05:56:53.095Z,34.87
2018-07-01T05:59:21.457Z,34.50
2018-07-01T06:01:49.827Z,34.66
2018-07-01T06:04:18.331Z,34.93
2018-07-01T06:06:46.740Z,34.29
2018-07-01T06:09:15.148Z,33.92
2018-07-01T06:11:43.666Z,35.54
2018-07-01T06:14:12.069Z,33.50
2018-07-01T06:16:40.465Z,33.63
2018-07-01T06:19:09.155Z,34.11
2018-07-01T06:21:37.763Z,33.26
2018-07-01T06:24:06.158Z,33.45
2018-07-01T06:26:34.548Z,33.13
2018-07-01T06:29:02.997Z,33.00
2018-07-01T06:31:31.727Z,33.14
2018-07-01T06:34:00.264Z,33.25
2018-07-01T06:36:28.777Z,33.72
2018-07-01T06:38:57.362Z,32.45
2018-07-01T06:41:25.775Z,33.06
2018-07-01T06:43:54.379Z,32.52
2018-07-01T06:46:22.794Z,31.70
2018-07-01T06:48:51.157Z,32.17
2018-07-01T06:51:19.517Z,32.35
2018-07-01T06:53:47.850Z,32.40
2018-07-01T06:56:16.176Z,32.04
2018-07-01T06:58:44.575Z,32.77
2018-07-01T07:01:12.903Z,31.67
2018-07-01T07:03:41.255Z,32.17
2018-07-01T07:06:09.706Z,31.96
2018-07-01T07:08:38.165Z,31.62
2018-07-01T07:11:06.871Z,31.04
2018-07-01T07:13:35.317Z,31.63
2018-07-01T07:16:04.452Z,32.01
2018-07-01T07:18:32.802Z,33.78
2018-07-01T07:21:01.214Z,32.54
2018-07-01T07:23:29.572Z,31.32
2018-07-01T07:25:57.923Z,32.40
2018-07-01T07:28:26.321Z,31.76
2018-07-01T07:30:54.812Z,32.39
2018-07-01T07:33:23.165Z,31.16
2018-07-01T07:35:51.609Z,33.86
2018-07-01T07:41:39.774Z,31.11
2018-07-01T07:44:15.293Z,30.91
2018-07-01T07:46:46.055Z,31.56
2018-07-01T07:49:14.880Z,30.40
2018-07-01T07:51:46.001Z,30.15
2018-07-01T07:54:26.498Z,32.60
2018-07-01T07:56:54.823Z,30.43
2018-07-01T07:59:24.275Z,29.45
2018-07-01T08:01:52.696Z,30.23
2018-07-01T08:04:21.181Z,33.98
2018-07-01T08:06:51.540Z,32.22
2018-07-01T08:09:19.877Z,28.64
2018-07-01T08:11:48.925Z,28.39
2018-07-01T08:14:17.700Z,28.98
2018-07-01T08:16:46.162Z,28.73
2018-07-01T08:19:14.415Z,28.37
2018-07-01T08:21:43.133Z,28.08
2018-07-01T08:24:11.855Z,27.72
2018-07-01T08:26:40.208Z,28.05
2018-07-01T08:29:08.626Z,27.58
2018-07-01T08:31:36.948Z,27.39
2018-07-01T08:34:05.344Z,27.37
2018-07-01T08:36:33.847Z,26.78
2018-07-01T08:39:02.613Z,26.94
2018-07-01T08:41:41.480Z,31.61
2018-07-01T08:44:09.808Z,26.93
2018-07-01T08:46:38.195Z,26.82
2018-07-01T08:49:06.749Z,26.12
2018-07-01T08:51:35.438Z,26.75
2018-07-01T08:54:05.036Z,26.30
2018-07-01T08:56:33.996Z,25.78
2018-07-01T08:59:02.404Z,26.02
2018-07-01T09:01:31.067Z,25.70
2018-07-01T09:03:59.697Z,25.64
2018-07-01T09:06:28.082Z,25.53
2018-07-01T09:08:56.544Z,26.28
2018-07-01T09:11:28.616Z,25.47
2018-07-01T09:13:57.473Z,25.99
2018-07-01T09:16:25.808Z,25.46
2018-07-01T09:18:55.068Z,27.30
2018-07-01T09:21:23.511Z,29.75
2018-07-01T09:23:51.901Z,30.32
2018-07-01T09:26:20.270Z,27.11
2018-07-01T09:28:48.617Z,26.60
2018-07-01T09:31:17.450Z,27.20
2018-07-01T09:33:45.980Z,26.70
2018-07-01T09:36:14.813Z,28.45
2018-07-01T09:38:43.244Z,25.09
2018-07-01T09:41:11.586Z,24.06
2018-07-01T09:43:39.974Z,25.16
2018-07-01T09:46:09.978Z,26.20
2018-07-01T09:48:38.240Z,27.71
2018-07-01T09:51:06.607Z,26.33
2018-07-01T09:53:34.975Z,24.17
2018-07-01T09:56:03.415Z,26.00
2018-07-01T09:58:31.827Z,24.81
2018-07-01T10:01:00.243Z,24.59
2018-07-01T10:03:28.456Z,23.98
2018-07-01T10:05:56.806Z,25.57
2018-07-01T10:08:25.146Z,24.41
2018-07-01T10:10:53.446Z,25.65
2018-07-01T10:13:22.114Z,23.74
2018-07-01T10:15:50.390Z,25.62
2018-07-01T10:18:19.029Z,24.89
2018-07-01T10:20:47.317Z,24.37
2018-07-01T10:23:15.691Z,23.82
2018-07-01T10:25:44.243Z,25.39
2018-07-01T10:28:12.633Z,23.98
2018-07-01T10:30:41.005Z,24.89
2018-07-01T10:33:09.323Z,23.39
2018-07-01T10:35:37.705Z,22.25
2018-07-01T10:38:06.185Z,24.41
2018-07-01T10:40:34.573Z,24.47
2018-07-01T10:43:02.947Z,23.05
2018-07-01T10:45:31.276Z,22.56
2018-07-01T10:47:59.566Z,23.01
2018-07-01T10:50:27.999Z,22.78
2018-07-01T10:52:56.314Z,23.78
2018-07-01T10:55:24.770Z,22.86
2018-07-01T10:57:53.122Z,22.91
2018-07-01T11:00:21.450Z,23.99
2018-07-01T11:02:49.831Z,22.41
2018-07-01T11:05:18.132Z,22.94
2018-07-01T11:07:46.691Z,22.06
2018-07-01T11:10:15.064Z,22.17
2018-07-01T11:12:43.325Z,23.02
2018-07-01T11:15:11.681Z,24.10
2018-07-01T11:17:40.006Z,21.54
2018-07-01T11:20:08.594Z,23.59
2018-07-01T11:22:36.933Z,21.92
2018-07-01T11:25:05.372Z,21.51
2018-07-01T11:27:33.900Z,21.07
2018-07-01T11:30:05.536Z,22.73
2018-07-01T11:32:33.889Z,22.67
2018-07-01T11:35:03.127Z,21.78
2018-07-01T11:37:31.533Z,21.70
2018-07-01T11:39:59.872Z,24.04
2018-07-01T11:42:28.347Z,20.18
2018-07-01T11:44:56.865Z,20.39
2018-07-01T11:47:25.173Z,19.37
2018-07-01T11:49:53.482Z,22.78
2018-07-01T11:52:21.774Z,19.74
2018-07-01T11:54:50.072Z,19.89
2018-07-01T11:57:18.503Z,19.25
2018-07-01T11:59:46.761Z,18.15
2018-07-01T12:02:15.582Z,18.07
2018-07-01T12:05:02.956Z,17.74
2018-07-01T12:07:12.708Z,16.15
2018-07-01T12:09:41.039Z,14.80
2018-07-01T12:12:09.528Z,15.36
2018-07-01T12:14:38.012Z,12.36
2018-07-01T12:17:06.302Z,12.08
2018-07-01T12:19:34.664Z,10.49
2018-07-01T12:22:03.466Z,10.37
2018-07-01T12:24:33.230Z,11.29
2018-07-01T12:27:01.679Z,8.79
2018-07-01T12:29:30.602Z,8.39
2018-07-01T12:31:59.056Z,7.79
2018-07-01T12:34:27.406Z,7.74
2018-07-01T12:36:55.766Z,6.69
2018-07-01T12:39:24.149Z,7.55
2018-07-01T12:41:52.488Z,7.44
2018-07-01T12:44:20.900Z,6.56
2018-07-01T12:46:49.335Z,6.63
2018-07-01T12:49:17.880Z,5.83
2018-07-01T12:51:46.148Z,6.65
2018-07-01T12:54:14.512Z,6.31
2018-07-01T12:56:42.945Z,5.82
2018-07-01T12:59:11.231Z,4.95
2018-07-01T13:01:39.514Z,4.65
2018-07-01T13:04:07.916Z,4.65
2018-07-01T13:06:36.389Z,5.74
2018-07-01T13:09:09.423Z,6.25
2018-07-01T13:11:37.852Z,5.42
2018-07-01T13:14:06.277Z,5.20
2018-07-01T13:16:34.788Z,4.23
2018-07-01T13:19:03.140Z,5.18
2018-07-01T13:21:31.478Z,5.65
2018-07-01T13:24:00.062Z,5.47
2018-07-01T13:26:28.414Z,4.34
2018-07-01T13:28:56.802Z,4.98
2018-07-01T13:31:25.160Z,4.23
2018-07-01T13:33:53.597Z,4.07
2018-07-01T13:36:21.949Z,4.47
2018-07-01T13:38:50.335Z,4.04
2018-07-01T13:41:19.279Z,3.75
2018-07-01T13:43:47.713Z,3.58
2018-07-01T13:46:16.197Z,4.27
2018-07-01T13:48:44.650Z,3.93
2018-07-01T13:51:12.977Z,4.30
2018-07-01T13:53:41.373Z,3.14
2018-07-01T13:56:09.741Z,3.61
2018-07-01T13:58:38.017Z,3.33
2018-07-01T14:01:06.702Z,4.09
2018-07-01T14:03:35.191Z,3.41
2018-07-01T14:06:03.698Z,2.92
2018-07-01T14:08:32.244Z,2.96
2018-07-01T14:11:00.598Z,2.97
2018-07-01T14:13:29.108Z,3.38
2018-07-01T14:15:57.509Z,3.67
2018-07-01T14:18:25.993Z,3.57
2018-07-01T14:20:54.381Z,2.87
2018-07-01T14:23:22.755Z,3.05
2018-07-01T14:25:51.112Z,2.99
2018-07-01T14:28:19.486Z,2.81
2018-07-01T14:30:47.869Z,2.75
2018-07-01T14:33:16.320Z,2.96
2018-07-01T14:35:44.673Z,2.04
2018-07-01T14:38:13.231Z,2.26
2018-07-01T14:40:41.665Z,2.53
2018-07-01T14:43:10.039Z,2.85
2018-07-01T14:45:38.457Z,2.46
2018-07-01T14:48:09.296Z,2.01
2018-07-01T14:50:40.437Z,2.83
2018-07-01T14:53:10.603Z,2.90
2018-07-01T14:55:51.189Z,3.14
2018-07-01T14:58:29.421Z,2.07
2018-07-01T15:00:57.918Z,2.26
2018-07-01T15:03:26.615Z,2.02
2018-07-01T15:05:55.710Z,1.48
2018-07-01T15:08:24.076Z,2.13
2018-07-01T15:10:54.293Z,1.92
2018-07-01T15:13:23.096Z,2.34
2018-07-01T15:15:51.501Z,2.73
2018-07-01T15:18:19.925Z,2.30
2018-07-01T15:20:48.321Z,1.76
2018-07-01T15:23:16.759Z,2.81
2018-07-01T15:25:45.125Z,2.20
2018-07-01T15:28:13.605Z,1.90
2018-07-01T15:30:42.126Z,2.23
2018-07-01T15:33:10.770Z,2.28
2018-07-01T15:35:39.107Z,1.71
2018-07-01T15:38:07.513Z,1.57
2018-07-01T15:40:35.830Z,1.83
2018-07-01T15:43:04.170Z,2.15
2018-07-01T15:45:32.477Z,2.17
2018-07-01T15:48:00.939Z,1.91
2018-07-01T15:50:29.450Z,2.67
2018-07-01T15:52:57.866Z,2.59
2018-07-01T15:55:26.182Z,2.28
2018-07-01T15:57:54.704Z,2.69
2018-07-01T16:00:23.002Z,2.27
2018-07-01T16:02:51.366Z,2.90
2018-07-01T16:05:19.765Z,2.37
2018-07-01T16:07:48.077Z,2.23
2018-07-01T16:10:16.481Z,2.96
2018-07-01T16:12:45.883Z,2.62
2018-07-01T16:15:15.872Z,2.19
2018-07-01T16:20:21.372Z,2.34
2018-07-01T16:22:56.239Z,3.21
2018-07-01T16:25:30.421Z,2.75
2018-07-01T16:28:10.703Z,2.81
2018-07-01T16:30:53.598Z,3.65
2018-07-01T16:33:29.363Z,3.42
2018-07-01T16:35:59.059Z,3.70
2018-07-01T16:38:28.187Z,4.34
2018-07-01T16:40:56.764Z,3.18
2018-07-01T16:43:25.167Z,2.73
2018-07-01T16:45:53.856Z,2.69
2018-07-01T16:48:22.427Z,3.47
2018-07-01T16:50:50.857Z,3.05
2018-07-01T16:53:19.339Z,2.94
2018-07-01T16:55:49.371Z,3.61
2018-07-01T16:58:19.089Z,3.30
2018-07-01T17:00:47.533Z,3.77
2018-07-01T17:03:15.884Z,3.83
2018-07-01T17:05:44.512Z,4.17
2018-07-01T17:08:13.040Z,4.02
2018-07-01T17:10:41.761Z,3.32
2018-07-01T17:13:11.551Z,4.76
2018-07-01T17:15:40.620Z,4.45
2018-07-01T17:18:09.089Z,3.74
2018-07-01T17:20:37.501Z,4.20
2018-07-01T17:23:06.014Z,3.82
2018-07-01T17:25:38.711Z,5.03
2018-07-01T17:28:07.341Z,5.41
2018-07-01T17:30:49.197Z,5.62
2018-07-01T17:33:23.585Z,5.83
2018-07-01T17:35:54.859Z,4.66
2018-07-01T17:38:23.746Z,6.72
2018-07-01T17:40:52.056Z,4.74
2018-07-01T17:43:20.517Z,4.90
2018-07-01T17:45:48.823Z,6.41
2018-07-01T17:48:17.323Z,5.37
2018-07-01T17:50:53.597Z,5.84
2018-07-01T17:53:33.137Z,5.52
2018-07-01T17:56:03.994Z,5.59
2018-07-01T17:58:32.632Z,6.56
2018-07-01T18:01:11.788Z,6.01
2018-07-01T18:03:41.224Z,6.21
2018-07-01T18:06:09.943Z,7.36
2018-07-01T18:08:50.312Z,6.20
2018-07-01T18:11:19.372Z,8.48
2018-07-01T18:13:48.167Z,12.15
2018-07-01T18:16:17.346Z,12.62
2018-07-01T18:18:47.023Z,11.98
2018-07-01T18:21:20.813Z,13.84
2018-07-01T18:24:19.504Z,16.00
2018-07-01T18:26:17.700Z,16.38
2018-07-01T18:28:55.766Z,18.50
2018-07-01T18:31:14.991Z,18.06
2018-07-01T18:33:44.916Z,21.15
2018-07-01T18:36:13.570Z,20.14
2018-07-01T18:38:42.355Z,22.46
2018-07-01T18:41:11.561Z,22.94
2018-07-01T18:43:40.728Z,20.57
2018-07-01T18:46:09.642Z,19.84
2018-07-01T18:48:39.246Z,20.20
2018-07-01T18:51:07.936Z,19.86
2018-07-01T18:53:36.698Z,20.10
2018-07-01T18:56:06.028Z,21.16
2018-07-01T18:58:34.910Z,21.23
2018-07-01T19:01:03.701Z,24.44
2018-07-01T19:03:32.441Z,24.85
2018-07-01T19:06:01.377Z,25.33
2018-07-01T19:08:30.079Z,23.26
2018-07-01T19:10:58.812Z,25.98
2018-07-01T19:13:27.629Z,24.43
2018-07-01T19:15:56.736Z,23.99
2018-07-01T19:18:25.634Z,23.50
2018-07-01T19:20:56.186Z,23.90
2018-07-01T19:23:24.974Z,24.93
2018-07-01T19:25:53.636Z,25.27
2018-07-01T19:28:22.425Z,27.25
2018-07-01T19:30:51.215Z,27.51
2018-07-01T19:33:20.042Z,26.48
2018-07-01T19:35:48.730Z,26.17
2018-07-01T19:38:17.781Z,26.21
2018-07-01T19:40:46.615Z,27.96
2018-07-01T19:43:15.558Z,27.72
2018-07-01T19:45:44.561Z,28.63
2018-07-01T19:48:13.545Z,27.98
2018-07-01T19:50:50.985Z,28.70
2018-07-01T19:53:21.638Z,30.24
2018-07-01T19:55:55.367Z,29.96
2018-07-01T19:58:25.250Z,29.09
2018-07-01T20:00:53.968Z,29.01
2018-07-01T20:03:23.086Z,30.37
2018-07-01T20:05:52.911Z,31.03
2018-07-01T20:08:26.862Z,32.46
2018-07-01T20:10:56.810Z,29.82
2018-07-01T20:13:25.683Z,29.97
2018-07-01T20:15:54.535Z,29.78
2018-07-01T20:18:32.559Z,30.16
2018-07-01T20:21:01.086Z,31.53
2018-07-01T20:23:29.576Z,29.75
2018-07-01T20:25:58.839Z,29.92
2018-07-01T20:28:27.869Z,31.69
2018-07-01T20:30:56.449Z,31.13
2018-07-01T20:33:24.871Z,32.57
2018-07-01T20:35:53.291Z,32.37
2018-07-01T20:38:22.684Z,30.03
2018-07-01T20:40:52.117Z,31.74
2018-07-01T20:43:21.539Z,34.40
2018-07-01T20:45:54.409Z,32.21
2018-07-01T20:48:22.844Z,31.89
2018-07-01T20:50:51.452Z,33.83
2018-07-01T20:53:20.102Z,32.22
2018-07-01T20:55:49.044Z,35.32
2018-07-01T20:58:17.460Z,32.74
2018-07-01T21:00:45.989Z,31.80
2018-07-01T21:03:14.438Z,34.80
2018-07-01T21:05:42.824Z,33.76
2018-07-01T21:08:11.085Z,31.69
2018-07-01T21:10:39.504Z,34.66
2018-07-01T21:13:07.935Z,32.65
2018-07-01T21:15:36.518Z,34.16
2018-07-01T21:18:05.111Z,32.56
2018-07-01T21:20:33.823Z,33.32
2018-07-01T21:23:02.126Z,35.37
2018-07-01T21:25:30.487Z,32.90
2018-07-01T21:27:58.858Z,35.36
2018-07-01T21:30:27.318Z,35.68
2018-07-01T21:32:55.757Z,32.77
2018-07-01T21:35:24.631Z,34.71
2018-07-01T21:37:53.343Z,34.11
2018-07-01T21:40:21.720Z,33.84
2018-07-01T21:42:50.051Z,34.95
2018-07-01T21:45:18.575Z,33.41
2018-07-01T21:47:47.078Z,34.66
2018-07-01T21:50:15.450Z,33.54
2018-07-01T21:52:43.940Z,34.31
2018-07-01T21:55:12.290Z,34.09
2018-07-01T21:57:40.580Z,35.74
2018-07-01T22:00:10.092Z,34.74
2018-07-01T22:02:38.589Z,35.92
2018-07-01T22:05:07.433Z,35.44
2018-07-01T22:07:35.733Z,35.85
2018-07-01T22:10:04.262Z,39.30
2018-07-01T22:12:44.007Z,41.51
2018-07-01T22:15:27.817Z,42.53
2018-07-01T22:17:57.245Z,42.74
2018-07-01T22:20:25.981Z,41.14
2018-07-01T22:22:54.349Z,39.22
2018-07-01T22:25:22.936Z,37.77
2018-07-01T22:27:51.457Z,36.97
2018-07-01T22:30:19.792Z,37.15
2018-07-01T22:32:48.109Z,38.96
2018-07-01T22:35:16.531Z,38.05
2018-07-01T22:37:44.982Z,38.33
2018-07-01T22:40:13.286Z,38.68
2018-07-01T22:42:41.764Z,41.43
2018-07-01T22:45:10.083Z,43.63
2018-07-01T22:47:39.035Z,47.21
2018-07-01T22:50:08.723Z,45.11
2018-07-01T22:52:37.114Z,46.34
2018-07-01T22:55:05.555Z,45.29
2018-07-01T22:57:33.928Z,41.23
2018-07-01T23:00:02.196Z,40.14
2018-07-01T23:02:53.097Z,41.88
2018-07-01T23:05:22.213Z,49.07
2018-07-01T23:07:51.122Z,40.26
2018-07-01T23:10:21.019Z,40.42
2018-07-01T23:12:49.806Z,40.77
2018-07-01T23:15:18.229Z,40.74
2018-07-01T23:17:46.610Z,41.09
2018-07-01T23:20:15.145Z,41.56
2018-07-01T23:22:43.466Z,41.29
2018-07-01T23:25:12.721Z,42.12
2018-07-01T23:27:41.600Z,41.65
2018-07-01T23:30:10.087Z,41.72
2018-07-01T23:32:38.563Z,41.32
2018-07-01T23:35:07.105Z,42.73
2018-07-01T23:37:35.590Z,42.54
2018-07-01T23:40:04.249Z,41.88
2018-07-01T23:42:32.576Z,42.56
2018-07-01T23:45:01.969Z,42.72
2018-07-01T23:47:30.355Z,43.36
2018-07-01T23:49:58.662Z,42.37
2018-07-01T23:52:27.133Z,43.35
2018-07-01T23:54:55.489Z,42.51
2018-07-01T23:57:23.965Z,42.17
2018-07-01T23:59:52.332Z,44.09
